Time;durP1;ratioP1;P1;durP2;ratioP2;P2;SDS_P1;SDS_P2;PMS_P1;PMS_P2;Temp;Humidity;BMP_temperature;BMP_pressure;BME280_temperature;BME280_humidity;BME280_pressure;Samples;Min_cycle;Max_cycle;Signal;HPM_P1;HPM_P2
2021/01/17 00:00:45;;;;;;;19.80;10.95;;;0.60;99.90;;;;;;5033479;28;20215;-79
2021/01/17 00:03:11;;;;;;;23.20;10.52;;;0.80;99.90;;;;;;5032872;28;20240;-79
2021/01/17 00:05:39;;;;;;;17.45;10.82;;;0.80;99.90;;;;;;5034260;28;20582;-79
2021/01/17 00:08:10;;;;;;;18.45;9.90;;;0.70;99.90;;;;;;5040076;28;20239;-79
2021/01/17 00:10:37;;;;;;;17.85;10.70;;;0.50;99.90;;;;;;5034206;28;20199;-78
2021/01/17 00:13:06;;;;;;;17.02;10.50;;;0.60;99.90;;;;;;5033665;28;20211;-79
2021/01/17 00:15:33;;;;;;;19.13;10.50;;;0.80;99.90;;;;;;5032622;28;20306;-79
2021/01/17 00:18:01;;;;;;;21.75;11.63;;;0.50;99.90;;;;;;5032902;28;20249;-79
2021/01/17 00:20:29;;;;;;;19.08;10.13;;;0.50;99.90;;;;;;5052438;28;20202;-79
2021/01/17 00:23:01;;;;;;;21.02;11.77;;;0.50;99.90;;;;;;5041401;28;20280;-79
2021/01/17 00:25:27;;;;;;;20.40;11.30;;;0.30;99.90;;;;;;5040074;28;20202;-79
2021/01/17 00:27:55;;;;;;;25.25;12.38;;;0.60;99.90;;;;;;5038581;28;20238;-79
2021/01/17 00:30:24;;;;;;;21.40;11.77;;;0.30;99.90;;;;;;5037144;28;20226;-79
2021/01/17 00:32:50;;;;;;;18.95;10.93;;;0.40;99.90;;;;;;5039448;28;20203;-79
2021/01/17 00:35:17;;;;;;;22.05;10.18;;;0.60;99.90;;;;;;5037976;28;20203;-79
2021/01/17 00:37:44;;;;;;;21.83;11.82;;;0.40;99.90;;;;;;5039578;28;20227;-79
2021/01/17 00:40:12;;;;;;;19.52;10.63;;;0.30;99.90;;;;;;5040089;28;20206;-79
2021/01/17 00:42:45;;;;;;;22.40;11.02;;;0.30;99.90;;;;;;5033284;28;20210;-78
2021/01/17 00:45:12;;;;;;;19.48;10.77;;;0.40;99.90;;;;;;5036705;28;20295;-79
2021/01/17 00:47:43;;;;;;;20.23;11.25;;;0.40;99.90;;;;;;5031691;28;20232;-79
2021/01/17 00:50:10;;;;;;;18.98;11.75;;;0.40;99.90;;;;;;5031990;28;20218;-79
2021/01/17 00:52:37;;;;;;;20.27;10.82;;;0.20;99.90;;;;;;5032044;28;20286;-79
2021/01/17 00:55:04;;;;;;;19.75;10.70;;;0.20;99.90;;;;;;5031413;28;20218;-79
2021/01/17 00:57:32;;;;;;;20.80;11.57;;;0.50;99.90;;;;;;5020762;28;20212;-79
2021/01/17 00:59:58;;;;;;;21.00;11.20;;;0.30;99.90;;;;;;5033232;28;20297;-79
2021/01/17 01:02:25;;;;;;;21.38;12.80;;;0.40;99.90;;;;;;5033452;28;20207;-79
2021/01/17 01:04:52;;;;;;;23.95;13.05;;;0.30;99.90;;;;;;5032302;28;20207;-79
2021/01/17 01:07:18;;;;;;;20.50;12.05;;;0.60;99.90;;;;;;5031815;28;20211;-79
2021/01/17 01:09:44;;;;;;;23.27;14.05;;;0.70;99.90;;;;;;5031278;28;20207;-79
2021/01/17 01:12:13;;;;;;;19.73;12.35;;;0.40;99.90;;;;;;5033888;28;20221;-79
2021/01/17 01:14:41;;;;;;;22.40;11.98;;;0.40;99.90;;;;;;5055993;28;20224;-79
2021/01/17 01:17:07;;;;;;;25.92;12.50;;;0.60;99.90;;;;;;5040505;28;20234;-79
2021/01/17 01:19:34;;;;;;;21.85;12.88;;;0.60;99.90;;;;;;5043355;28;20226;-79
2021/01/17 01:22:02;;;;;;;21.20;12.88;;;0.60;99.90;;;;;;5037876;28;20199;-79
2021/01/17 01:24:30;;;;;;;25.17;12.80;;;0.40;99.90;;;;;;5038858;28;20246;-79
2021/01/17 01:26:57;;;;;;;20.77;12.30;;;0.40;99.90;;;;;;5032070;28;20221;-79
2021/01/17 01:29:24;;;;;;;22.30;13.07;;;0.30;99.90;;;;;;5046848;28;20593;-78
2021/01/17 01:31:51;;;;;;;22.85;11.38;;;0.30;99.90;;;;;;5045043;28;20207;-79
2021/01/17 01:34:18;;;;;;;19.27;11.57;;;0.30;99.90;;;;;;5033780;28;20211;-79
2021/01/17 01:36:45;;;;;;;24.27;12.85;;;0.40;99.90;;;;;;5033086;28;20219;-79
2021/01/17 01:39:12;;;;;;;25.13;13.77;;;0.40;99.90;;;;;;5033567;28;20230;-79
2021/01/17 01:41:41;;;;;;;24.27;12.57;;;0.40;99.90;;;;;;5033193;28;20254;-78
2021/01/17 01:44:09;;;;;;;20.20;12.27;;;0.40;99.90;;;;;;5033579;28;20206;-79
2021/01/17 01:46:38;;;;;;;23.27;13.32;;;0.40;99.90;;;;;;5049024;28;20203;-79
2021/01/17 01:49:06;;;;;;;23.70;14.27;;;0.40;99.90;;;;;;5045441;28;20222;-79
2021/01/17 01:51:33;;;;;;;22.10;13.18;;;0.40;99.90;;;;;;5034122;28;20246;-79
2021/01/17 01:53:59;;;;;;;31.00;14.27;;;0.50;99.90;;;;;;5045145;28;20256;-78
2021/01/17 01:56:26;;;;;;;23.00;13.40;;;0.60;99.90;;;;;;5055553;28;20226;-78
2021/01/17 01:58:54;;;;;;;25.88;14.63;;;0.60;99.90;;;;;;5037207;28;20239;-78
2021/01/17 02:01:22;;;;;;;26.63;15.30;;;0.40;99.90;;;;;;5033734;28;20240;-79
2021/01/17 02:03:50;;;;;;;23.45;12.90;;;0.50;99.90;;;;;;5034160;28;20211;-78
2021/01/17 02:06:20;;;;;;;28.25;14.38;;;0.60;99.90;;;;;;5040892;28;20298;-79
2021/01/17 02:09:23;;;;;;;21.95;12.90;;;0.40;99.90;;;;;;5046148;28;20820;-79
2021/01/17 02:12:01;;;;;;;24.55;14.30;;;0.60;99.90;;;;;;5016671;28;20221;-78
2021/01/17 02:14:40;;;;;;;27.95;15.25;;;0.30;99.90;;;;;;5032843;28;20206;-79
2021/01/17 02:17:09;;;;;;;26.45;14.75;;;0.30;99.90;;;;;;5033466;28;20792;-79
2021/01/17 02:19:38;;;;;;;25.55;14.38;;;0.30;99.90;;;;;;5036968;28;20223;-79
2021/01/17 02:22:08;;;;;;;24.73;14.13;;;0.40;99.90;;;;;;5033232;28;20203;-78
2021/01/17 02:24:49;;;;;;;30.00;14.93;;;0.30;99.90;;;;;;5032905;28;20203;-79
2021/01/17 02:27:16;;;;;;;22.80;13.48;;;0.60;99.90;;;;;;5033340;28;20199;-79
2021/01/17 02:29:47;;;;;;;22.98;14.13;;;0.60;99.90;;;;;;5033566;28;20222;-78
2021/01/17 02:32:17;;;;;;;24.45;12.23;;;0.30;99.90;;;;;;5036146;28;20210;-79
2021/01/17 02:34:45;;;;;;;22.23;14.30;;;0.40;99.90;;;;;;5033642;28;20217;-79
2021/01/17 02:37:35;;;;;;;25.92;14.27;;;0.60;99.90;;;;;;5036494;28;20235;-79
2021/01/17 02:40:06;;;;;;;22.85;13.85;;;0.60;99.90;;;;;;5040664;28;20211;-79
2021/01/17 02:42:33;;;;;;;22.30;13.45;;;0.70;99.90;;;;;;5037451;28;20216;-79
2021/01/17 02:45:01;;;;;;;24.65;13.95;;;0.60;99.90;;;;;;5037599;28;20203;-79
2021/01/17 02:47:28;;;;;;;27.52;13.60;;;0.60;99.90;;;;;;5038847;28;20199;-79
2021/01/17 02:49:54;;;;;;;28.85;14.88;;;0.70;99.90;;;;;;5038052;28;20215;-79
2021/01/17 02:52:29;;;;;;;27.85;14.77;;;0.60;99.90;;;;;;5036881;28;20680;-79
2021/01/17 02:54:55;;;;;;;25.00;13.40;;;0.60;99.90;;;;;;5037123;28;20199;-79
2021/01/17 02:57:27;;;;;;;25.25;13.68;;;0.60;99.90;;;;;;5036942;28;20237;-78
2021/01/17 02:59:57;;;;;;;26.25;14.93;;;0.80;99.90;;;;;;5036510;28;20207;-79
2021/01/17 03:02:29;;;;;;;26.25;15.02;;;0.80;99.90;;;;;;5036849;28;20210;-79
2021/01/17 03:04:59;;;;;;;22.08;13.88;;;0.90;99.90;;;;;;5037821;28;20696;-79
2021/01/17 03:07:29;;;;;;;22.80;13.70;;;0.70;99.90;;;;;;5036986;28;20261;-79
2021/01/17 03:09:56;;;;;;;23.33;14.77;;;0.70;99.90;;;;;;5036131;28;20215;-79
2021/01/17 03:12:24;;;;;;;27.30;15.80;;;0.90;99.90;;;;;;5037012;28;20224;-79
2021/01/17 03:14:52;;;;;;;25.77;15.40;;;0.90;99.90;;;;;;5036282;28;20688;-79
2021/01/17 03:17:18;;;;;;;23.58;13.82;;;0.70;99.90;;;;;;5037083;28;20223;-78
2021/01/17 03:19:45;;;;;;;24.95;15.18;;;0.60;99.90;;;;;;5044479;28;20206;-79
2021/01/17 03:22:12;;;;;;;22.05;14.50;;;0.60;99.90;;;;;;5052921;28;20200;-79
2021/01/17 03:24:38;;;;;;;29.55;16.50;;;0.90;99.90;;;;;;5037479;28;20219;-79
2021/01/17 03:27:05;;;;;;;27.60;15.50;;;0.80;99.90;;;;;;5037532;28;20195;-79
2021/01/17 03:29:32;;;;;;;25.27;14.40;;;0.70;99.90;;;;;;5036437;28;20222;-79
2021/01/17 03:31:59;;;;;;;25.98;15.60;;;0.80;99.90;;;;;;5037362;28;20223;-79
2021/01/17 03:34:25;;;;;;;28.13;15.15;;;0.70;99.90;;;;;;5037748;28;20203;-79
2021/01/17 03:36:52;;;;;;;28.95;14.45;;;0.70;99.90;;;;;;5038021;28;20341;-79
2021/01/17 03:39:18;;;;;;;23.77;14.48;;;0.60;99.90;;;;;;5038101;28;20231;-79
2021/01/17 03:41:45;;;;;;;27.45;15.80;;;0.60;99.90;;;;;;5040925;28;20206;-78
2021/01/17 03:44:12;;;;;;;21.88;14.25;;;0.70;99.90;;;;;;5037334;28;20214;-79
2021/01/17 03:46:39;;;;;;;27.98;15.75;;;0.60;99.90;;;;;;5036395;28;20567;-79
2021/01/17 03:49:06;;;;;;;29.40;15.73;;;0.80;99.90;;;;;;5037605;28;20249;-79
2021/01/17 03:51:32;;;;;;;29.45;16.20;;;0.70;99.90;;;;;;5038533;28;20650;-79
2021/01/17 03:53:59;;;;;;;21.92;13.85;;;1.10;99.90;;;;;;5037740;28;20230;-79
2021/01/17 03:56:26;;;;;;;26.23;15.45;;;1.00;99.90;;;;;;5036841;28;20260;-79
2021/01/17 03:58:53;;;;;;;23.70;13.07;;;0.90;99.90;;;;;;5034951;28;20235;-79
2021/01/17 04:01:19;;;;;;;26.13;14.15;;;1.20;99.90;;;;;;5035429;28;20234;-79
2021/01/17 04:03:49;;;;;;;22.25;12.82;;;1.20;99.90;;;;;;5034111;28;20203;-79
2021/01/17 04:06:16;;;;;;;22.55;13.77;;;1.00;99.90;;;;;;5034894;28;20221;-79
2021/01/17 04:08:43;;;;;;;24.50;13.30;;;1.10;99.90;;;;;;5034274;28;20230;-79
2021/01/17 04:11:10;;;;;;;23.83;13.80;;;1.00;99.90;;;;;;5036014;28;20207;-80
2021/01/17 04:13:36;;;;;;;23.88;13.63;;;0.90;99.90;;;;;;5033708;28;20773;-79
2021/01/17 04:16:03;;;;;;;24.95;13.23;;;1.00;99.90;;;;;;5042744;28;20223;-79
2021/01/17 04:18:30;;;;;;;28.40;15.65;;;0.90;99.90;;;;;;5049385;28;20233;-78
2021/01/17 04:20:57;;;;;;;25.65;14.20;;;1.00;99.90;;;;;;5037106;28;20208;-79
2021/01/17 04:23:24;;;;;;;25.40;14.50;;;1.00;99.90;;;;;;5042266;28;20257;-78
2021/01/17 04:25:51;;;;;;;28.08;14.68;;;0.80;99.90;;;;;;5044734;28;20203;-79
2021/01/17 04:28:17;;;;;;;28.98;15.40;;;1.00;99.90;;;;;;5037642;28;20219;-79
2021/01/17 04:30:45;;;;;;;24.48;14.43;;;0.80;99.90;;;;;;5037068;28;20813;-79
2021/01/17 04:33:12;;;;;;;25.98;15.88;;;0.80;99.90;;;;;;5037907;28;20219;-79
2021/01/17 04:35:39;;;;;;;24.05;13.93;;;1.00;99.90;;;;;;5038670;28;20222;-79
2021/01/17 04:38:06;;;;;;;25.23;14.48;;;0.80;99.90;;;;;;5036699;28;20230;-79
2021/01/17 04:40:33;;;;;;;24.67;13.60;;;0.90;99.90;;;;;;5033566;28;20215;-79
2021/01/17 04:43:07;;;;;;;25.05;14.93;;;0.80;99.90;;;;;;5032319;28;20209;-79
2021/01/17 04:45:35;;;;;;;25.80;14.88;;;1.10;99.90;;;;;;5031872;28;20231;-79
2021/01/17 04:48:03;;;;;;;26.92;14.40;;;0.90;99.90;;;;;;5032546;28;20693;-79
2021/01/17 04:50:31;;;;;;;25.77;14.60;;;0.90;99.90;;;;;;5034298;28;20211;-79
2021/01/17 04:53:03;;;;;;;27.08;15.40;;;0.80;99.90;;;;;;5038008;28;20765;-79
2021/01/17 04:55:34;;;;;;;29.88;16.35;;;0.80;99.90;;;;;;5034150;28;20210;-79
2021/01/17 04:58:12;;;;;;;28.27;15.40;;;1.00;99.90;;;;;;5031957;28;20230;-79
2021/01/17 05:00:41;;;;;;;28.55;16.38;;;0.90;99.90;;;;;;5033206;28;20229;-79
2021/01/17 05:03:41;;;;;;;30.60;15.18;;;0.90;99.90;;;;;;5031856;28;20302;-79
2021/01/17 05:06:25;;;;;;;28.73;15.68;;;1.30;99.90;;;;;;5018422;28;20207;-77
2021/01/17 05:08:58;;;;;;;26.60;14.63;;;1.20;99.90;;;;;;5030441;28;20306;-77
2021/01/17 05:11:33;;;;;;;25.60;14.65;;;1.20;99.90;;;;;;5030745;28;20203;-77
2021/01/17 05:14:10;;;;;;;27.00;15.45;;;1.10;99.90;;;;;;5031885;28;20210;-77
2021/01/17 05:16:39;;;;;;;27.42;14.98;;;1.10;99.90;;;;;;5031014;28;20697;-77
2021/01/17 05:19:11;;;;;;;28.55;15.23;;;1.10;99.90;;;;;;5035832;28;20234;-77
2021/01/17 05:21:43;;;;;;;31.75;16.58;;;1.30;99.90;;;;;;5056393;28;20654;-77
2021/01/17 05:24:12;;;;;;;26.70;14.75;;;1.30;99.90;;;;;;5036848;28;20207;-77
2021/01/17 05:26:42;;;;;;;27.17;15.20;;;1.30;99.90;;;;;;5034598;28;20203;-78
2021/01/17 05:29:09;;;;;;;29.70;16.77;;;1.30;99.90;;;;;;5039635;28;20223;-77
2021/01/17 05:31:36;;;;;;;28.45;15.48;;;1.10;99.90;;;;;;5038060;28;20214;-77
2021/01/17 05:34:03;;;;;;;27.15;15.30;;;1.10;99.90;;;;;;5034595;28;20683;-77
2021/01/17 05:36:29;;;;;;;25.83;16.15;;;1.20;99.90;;;;;;5034395;28;20221;-77
2021/01/17 05:39:04;;;;;;;26.38;15.82;;;1.20;99.90;;;;;;5033938;28;20258;-77
2021/01/17 05:41:31;;;;;;;27.75;14.85;;;1.20;99.90;;;;;;5033717;28;20237;-77
2021/01/17 05:43:58;;;;;;;28.90;15.98;;;1.20;99.90;;;;;;5033798;28;20812;-77
2021/01/17 05:46:25;;;;;;;25.60;14.38;;;1.00;99.90;;;;;;5033876;28;20203;-78
2021/01/17 05:49:09;;;;;;;25.80;14.07;;;1.20;99.90;;;;;;5036060;28;20305;-78
2021/01/17 05:51:36;;;;;;;25.88;14.52;;;1.00;99.90;;;;;;5036225;28;20661;-77
2021/01/17 05:54:07;;;;;;;25.75;15.18;;;1.20;99.90;;;;;;5030405;28;20283;-77
2021/01/17 05:56:35;;;;;;;29.00;16.52;;;1.20;99.90;;;;;;5029442;28;20609;-77
2021/01/17 05:59:03;;;;;;;25.80;15.88;;;1.00;99.90;;;;;;5029386;28;20603;-78
2021/01/17 06:01:33;;;;;;;28.15;15.35;;;1.00;99.90;;;;;;5029937;28;20279;-78
2021/01/17 06:04:09;;;;;;;28.40;15.30;;;1.10;99.90;;;;;;5030217;28;20645;-78
2021/01/17 06:06:36;;;;;;;26.10;15.25;;;0.70;99.90;;;;;;5029211;28;20357;-78
2021/01/17 06:09:04;;;;;;;28.58;16.10;;;0.90;99.90;;;;;;5029389;28;20242;-78
2021/01/17 06:11:30;;;;;;;33.03;16.00;;;1.10;99.90;;;;;;5031315;28;20590;-78
2021/01/17 06:13:59;;;;;;;29.23;15.88;;;1.10;99.90;;;;;;5035541;28;20210;-78
2021/01/17 06:16:32;;;;;;;28.35;17.63;;;1.20;99.90;;;;;;5041424;28;20226;-79
2021/01/17 06:18:59;;;;;;;39.92;18.98;;;1.00;99.90;;;;;;5045222;28;20305;-79
2021/01/17 06:21:27;;;;;;;30.38;17.05;;;1.10;99.90;;;;;;5062092;28;20222;-79
2021/01/17 06:23:58;;;;;;;29.40;16.77;;;1.30;99.90;;;;;;5046479;28;20223;-79
2021/01/17 06:26:30;;;;;;;26.50;15.55;;;1.20;99.90;;;;;;5045582;28;20199;-79
2021/01/17 06:28:57;;;;;;;29.92;17.08;;;1.40;99.90;;;;;;5028005;28;20231;-79
2021/01/17 06:31:27;;;;;;;28.45;15.27;;;1.10;99.90;;;;;;5033177;28;20208;-79
2021/01/17 06:34:05;;;;;;;28.70;16.88;;;1.30;99.90;;;;;;5049648;28;20563;-79
2021/01/17 06:36:32;;;;;;;31.42;16.92;;;1.40;99.90;;;;;;5050134;28;20742;-79
2021/01/17 06:38:59;;;;;;;31.90;18.15;;;1.60;99.90;;;;;;5048077;28;20226;-79
2021/01/17 06:41:38;;;;;;;31.10;16.73;;;1.50;99.90;;;;;;5050286;28;20590;-77
2021/01/17 06:44:14;;;;;;;28.73;15.73;;;1.40;99.90;;;;;;5045259;28;20207;-79
2021/01/17 06:46:43;;;;;;;31.88;17.75;;;1.40;99.90;;;;;;5046556;28;20203;-79
2021/01/17 06:49:22;;;;;;;28.95;15.93;;;1.80;99.90;;;;;;5044830;28;20273;-80
2021/01/17 06:51:49;;;;;;;29.27;16.60;;;1.60;99.90;;;;;;5047174;28;20691;-79
2021/01/17 06:54:20;;;;;;;33.08;16.52;;;2.00;99.90;;;;;;5040050;28;20211;-77
2021/01/17 06:56:49;;;;;;;30.38;15.85;;;1.90;99.90;;;;;;5040488;28;20262;-79
2021/01/17 06:59:29;;;;;;;31.25;16.42;;;1.70;99.90;;;;;;5050656;28;20239;-79
2021/01/17 07:02:28;;;;;;;31.88;16.65;;;1.50;99.90;;;;;;5036171;28;20204;-77
2021/01/17 07:05:09;;;;;;;27.85;17.20;;;1.40;99.90;;;;;;5060644;28;20210;-78
2021/01/17 07:07:53;;;;;;;29.85;16.65;;;1.60;99.90;;;;;;5039900;28;20218;-77
2021/01/17 07:10:21;;;;;;;31.27;16.98;;;1.50;99.90;;;;;;5043141;28;20206;-79
2021/01/17 07:12:55;;;;;;;32.15;16.90;;;1.50;99.90;;;;;;5041693;28;20227;-79
2021/01/17 07:15:26;;;;;;;31.20;17.20;;;1.40;99.90;;;;;;5040775;28;20210;-79
2021/01/17 07:18:00;;;;;;;31.55;17.83;;;1.30;99.90;;;;;;5040782;28;20231;-79
2021/01/17 07:20:30;;;;;;;31.50;18.10;;;1.40;99.90;;;;;;5055517;28;20206;-79
2021/01/17 07:23:02;;;;;;;34.10;18.85;;;1.50;99.90;;;;;;5046771;28;20226;-77
2021/01/17 07:25:30;;;;;;;28.92;17.20;;;1.50;99.90;;;;;;5047403;28;20214;-79
2021/01/17 07:28:08;;;;;;;33.83;17.50;;;1.40;99.90;;;;;;5042629;28;20254;-77
2021/01/17 07:30:47;;;;;;;30.75;17.13;;;1.50;99.90;;;;;;5039638;28;20213;-78
2021/01/17 07:33:15;;;;;;;30.73;16.20;;;1.60;99.90;;;;;;5045353;28;20203;-78
2021/01/17 07:35:44;;;;;;;33.78;18.10;;;1.40;99.90;;;;;;5039536;28;20269;-78
2021/01/17 07:38:16;;;;;;;36.85;17.45;;;1.40;99.90;;;;;;5035106;28;20574;-78
2021/01/17 07:40:52;;;;;;;31.67;18.45;;;1.80;99.90;;;;;;5024305;28;20239;-78
2021/01/17 07:43:24;;;;;;;31.23;17.15;;;1.60;99.90;;;;;;5018801;28;20203;-78
2021/01/17 07:45:51;;;;;;;31.55;18.55;;;1.60;99.90;;;;;;5033367;28;20212;-78
2021/01/17 07:48:19;;;;;;;35.38;18.60;;;1.70;99.90;;;;;;5033009;28;20219;-78
2021/01/17 07:50:48;;;;;;;29.83;18.27;;;1.70;99.90;;;;;;5033189;28;20210;-78
2021/01/17 07:53:43;;;;;;;29.08;17.73;;;1.80;99.90;;;;;;5032941;28;20210;-79
2021/01/17 07:56:12;;;;;;;30.23;18.73;;;1.90;99.90;;;;;;5034603;28;20694;-78
2021/01/17 07:58:42;;;;;;;35.75;19.77;;;1.80;99.90;;;;;;5036235;28;20235;-79
2021/01/17 08:01:43;;;;;;;30.08;17.23;;;1.60;99.90;;;;;;5034890;28;20199;-79
2021/01/17 08:04:28;;;;;;;33.88;17.80;;;1.90;99.90;;;;;;5033376;28;20203;-79
2021/01/17 08:06:58;;;;;;;31.02;17.42;;;1.80;99.90;;;;;;5034276;28;20226;-78
2021/01/17 08:09:46;;;;;;;28.58;18.10;;;1.80;99.90;;;;;;5039381;28;20219;-77
2021/01/17 08:12:34;;;;;;;30.70;17.15;;;1.80;99.90;;;;;;5036330;28;20211;-77
2021/01/17 08:15:30;;;;;;;32.97;18.17;;;1.70;99.90;;;;;;5034487;28;20595;-78
2021/01/17 08:17:57;;;;;;;32.35;17.50;;;1.80;99.90;;;;;;5026374;28;20235;-78
2021/01/17 08:20:29;;;;;;;30.70;18.40;;;1.80;99.90;;;;;;5046533;28;20210;-77
2021/01/17 08:23:09;;;;;;;37.15;19.58;;;1.60;99.90;;;;;;5054263;28;20210;-78
2021/01/17 08:26:01;;;;;;;30.40;17.30;;;1.70;99.90;;;;;;5035543;28;20824;-78
2021/01/17 08:28:33;;;;;;;32.22;18.15;;;1.80;99.90;;;;;;5035121;28;20249;-78
2021/01/17 08:31:00;;;;;;;37.08;17.92;;;2.00;99.90;;;;;;5014691;28;20330;-78
2021/01/17 08:33:27;;;;;;;32.33;18.45;;;2.00;99.90;;;;;;5030056;28;20203;-77
2021/01/17 08:35:54;;;;;;;32.95;17.98;;;1.90;99.90;;;;;;5035338;28;20265;-78
2021/01/17 08:38:23;;;;;;;34.15;19.02;;;1.90;99.90;;;;;;5022903;28;20220;-79
2021/01/17 08:40:53;;;;;;;36.35;20.35;;;1.90;99.90;;;;;;5030674;28;20203;-78
2021/01/17 08:43:32;;;;;;;32.25;18.25;;;2.10;99.90;;;;;;5034755;28;20758;-78
2021/01/17 08:45:59;;;;;;;33.20;19.05;;;1.90;99.90;;;;;;5037043;28;20207;-78
2021/01/17 08:48:31;;;;;;;31.17;19.15;;;2.30;99.90;;;;;;5033087;28;20591;-79
2021/01/17 08:51:20;;;;;;;32.47;18.55;;;2.20;99.90;;;;;;5031659;28;20219;-78
2021/01/17 08:53:47;;;;;;;32.15;17.85;;;2.00;99.90;;;;;;5022351;28;20295;-79
2021/01/17 08:56:23;;;;;;;37.63;20.17;;;1.90;99.90;;;;;;5027741;28;20280;-77
2021/01/17 08:58:54;;;;;;;38.42;19.90;;;2.20;99.90;;;;;;5042579;28;20262;-78
2021/01/17 09:01:21;;;;;;;33.45;19.13;;;2.10;99.90;;;;;;5044033;28;20211;-79
2021/01/17 09:04:00;;;;;;;34.55;20.05;;;2.30;99.90;;;;;;5043005;28;20207;-79
2021/01/17 09:06:29;;;;;;;32.00;19.70;;;2.20;99.90;;;;;;5033159;28;20286;-79
2021/01/17 09:09:08;;;;;;;35.08;19.70;;;2.20;99.90;;;;;;5045055;28;20236;-78
2021/01/17 09:11:37;;;;;;;31.42;18.17;;;2.10;99.90;;;;;;5045346;28;20218;-78
2021/01/17 09:14:12;;;;;;;36.90;18.98;;;2.00;99.90;;;;;;5046908;28;20211;-79
2021/01/17 09:16:43;;;;;;;34.83;19.33;;;2.20;99.90;;;;;;5044657;28;20218;-78
2021/01/17 09:19:10;;;;;;;34.67;20.40;;;2.30;99.90;;;;;;5042493;28;20257;-78
2021/01/17 09:21:38;;;;;;;37.67;20.42;;;2.10;99.90;;;;;;5036057;28;20200;-77
2021/01/17 09:24:08;;;;;;;33.25;19.60;;;2.10;99.90;;;;;;5032264;28;20207;-77
2021/01/17 09:26:35;;;;;;;33.85;19.30;;;2.30;99.90;;;;;;5035103;28;20206;-77
2021/01/17 09:29:02;;;;;;;36.83;21.35;;;2.40;99.90;;;;;;5034073;28;20250;-77
2021/01/17 09:31:30;;;;;;;31.27;19.30;;;2.30;99.90;;;;;;5030582;28;20658;-78
2021/01/17 09:33:56;;;;;;;34.15;20.05;;;2.50;99.90;;;;;;5039423;28;20218;-79
2021/01/17 09:36:23;;;;;;;30.35;18.17;;;2.50;99.90;;;;;;5031938;28;20238;-79
2021/01/17 09:38:50;;;;;;;30.45;18.80;;;2.50;99.90;;;;;;5031663;28;20284;-79
2021/01/17 09:41:27;;;;;;;34.05;20.30;;;2.60;99.90;;;;;;5032357;28;20214;-79
2021/01/17 09:43:53;;;;;;;33.60;19.20;;;2.50;99.90;;;;;;5039985;28;20211;-79
2021/01/17 09:46:22;;;;;;;35.90;20.10;;;2.50;99.90;;;;;;5040803;28;20200;-78
2021/01/17 09:48:56;;;;;;;34.30;20.92;;;2.50;99.90;;;;;;5039228;28;20226;-78
2021/01/17 09:51:24;;;;;;;28.80;16.90;;;2.40;99.90;;;;;;5038769;28;20214;-78
2021/01/17 09:53:54;;;;;;;35.33;19.23;;;2.70;99.90;;;;;;5035371;28;20582;-78
2021/01/17 09:56:21;;;;;;;33.20;18.55;;;2.50;99.90;;;;;;5038587;28;20606;-78
2021/01/17 09:58:49;;;;;;;32.22;18.00;;;2.80;99.90;;;;;;5050164;28;20285;-79
2021/01/17 10:01:20;;;;;;;30.60;19.50;;;2.70;99.90;;;;;;5052239;28;20221;-78
2021/01/17 10:03:48;;;;;;;28.33;18.23;;;2.80;99.90;;;;;;5034001;28;20207;-78
2021/01/17 10:06:15;;;;;;;30.75;17.88;;;2.70;99.90;;;;;;5033285;28;20211;-78
2021/01/17 10:08:42;;;;;;;39.60;19.83;;;2.70;99.90;;;;;;5033817;28;20215;-77
2021/01/17 10:11:08;;;;;;;30.52;16.10;;;2.90;99.90;;;;;;5035648;28;20230;-78
2021/01/17 10:13:35;;;;;;;38.28;20.23;;;2.90;99.90;;;;;;5032675;28;20211;-77
2021/01/17 10:16:03;;;;;;;31.50;18.30;;;2.80;99.90;;;;;;5029273;28;20238;-75
2021/01/17 10:18:29;;;;;;;28.83;16.52;;;2.80;99.90;;;;;;5029099;28;20226;-74
2021/01/17 10:20:57;;;;;;;30.08;17.88;;;2.80;99.90;;;;;;5046159;28;20206;-74
2021/01/17 10:23:31;;;;;;;32.10;21.08;;;3.10;99.90;;;;;;5026784;28;20302;-75
2021/01/17 10:25:59;;;;;;;28.63;17.25;;;2.90;99.90;;;;;;5029214;28;20302;-75
2021/01/17 10:28:27;;;;;;;30.65;17.98;;;3.10;99.90;;;;;;5029310;28;20226;-75
2021/01/17 10:30:59;;;;;;;28.85;17.13;;;3.00;99.90;;;;;;5029340;28;20692;-75
2021/01/17 10:33:30;;;;;;;31.80;17.60;;;2.80;99.90;;;;;;5029540;28;20306;-75
2021/01/17 10:35:57;;;;;;;30.17;17.33;;;3.00;99.90;;;;;;5034011;28;20637;-79
2021/01/17 10:38:23;;;;;;;30.75;16.70;;;2.80;99.90;;;;;;5030973;28;20231;-77
2021/01/17 10:40:50;;;;;;;26.90;17.23;;;3.00;99.90;;;;;;5070475;22;20234;-82
2021/01/17 10:43:29;;;;;;;25.77;16.45;;;3.10;99.90;;;;;;5058225;28;20198;-88
2021/01/17 10:46:03;;;;;;;27.52;17.10;;;3.10;99.90;;;;;;5055270;28;20207;-89
2021/01/17 10:48:35;;;;;;;27.05;16.42;;;3.50;99.90;;;;;;5056435;28;20194;-89
2021/01/17 10:51:05;;;;;;;28.55;16.02;;;3.40;99.90;;;;;;5058674;28;20223;-91
2021/01/17 10:53:45;;;;;;;27.15;15.63;;;3.30;99.90;;;;;;5067342;28;20211;-89
2021/01/17 10:56:15;;;;;;;29.27;15.70;;;3.40;99.90;;;;;;5060798;28;20214;-88
2021/01/17 10:58:43;;;;;;;25.95;15.52;;;3.40;99.90;;;;;;5058184;28;20728;-88
2021/01/17 11:01:10;;;;;;;29.13;16.75;;;3.40;99.90;;;;;;5058821;28;20711;-89
2021/01/17 11:03:39;;;;;;;25.83;15.75;;;3.60;99.90;;;;;;5057979;28;20210;-88
2021/01/17 11:06:07;;;;;;;22.85;14.45;;;3.30;99.90;;;;;;5038577;28;20245;-89
2021/01/17 11:08:40;;;;;;;26.08;14.93;;;3.60;99.90;;;;;;5039452;28;20218;-88
2021/01/17 11:11:08;;;;;;;22.13;13.43;;;3.80;99.90;;;;;;5055001;28;20226;-90
2021/01/17 11:13:35;;;;;;;24.23;15.15;;;3.90;99.90;;;;;;5047991;28;20203;-87
2021/01/17 11:16:02;;;;;;;23.23;13.55;;;4.00;99.90;;;;;;5059484;28;20210;-88
2021/01/17 11:18:30;;;;;;;21.38;13.50;;;3.80;99.90;;;;;;5058510;28;20221;-89
2021/01/17 11:20:58;;;;;;;22.77;13.60;;;4.20;99.90;;;;;;5056967;28;20234;-89
2021/01/17 11:23:27;;;;;;;23.38;13.85;;;4.10;99.90;;;;;;5059149;28;20199;-89
2021/01/17 11:25:58;;;;;;;20.55;13.30;;;4.00;99.90;;;;;;5059032;28;20275;-88
2021/01/17 11:28:32;;;;;;;20.30;12.95;;;4.10;99.90;;;;;;5058292;28;20274;-89
2021/01/17 11:31:13;;;;;;;18.17;11.43;;;4.10;99.90;;;;;;5057510;28;20638;-88
2021/01/17 11:33:40;;;;;;;21.25;11.85;;;3.90;99.90;;;;;;5059246;28;20187;-88
2021/01/17 11:36:08;;;;;;;22.63;13.13;;;3.80;99.90;;;;;;5058995;28;20237;-89
2021/01/17 11:38:47;;;;;;;22.60;13.25;;;3.80;99.90;;;;;;5058481;28;20199;-87
2021/01/17 11:41:15;;;;;;;24.38;13.57;;;3.60;99.90;;;;;;5062581;28;20685;-88
2021/01/17 11:43:42;;;;;;;27.58;13.73;;;3.20;99.90;;;;;;5059162;28;20211;-87
2021/01/17 11:46:11;;;;;;;22.48;13.57;;;3.60;99.90;;;;;;5059450;28;20201;-88
2021/01/17 11:48:39;;;;;;;19.75;12.15;;;3.70;99.90;;;;;;5058528;28;20294;-87
2021/01/17 11:51:08;;;;;;;21.27;12.50;;;3.30;99.90;;;;;;5060524;28;20257;-88
2021/01/17 11:53:35;;;;;;;21.05;13.25;;;3.70;99.90;;;;;;5059934;28;20198;-88
2021/01/17 11:56:03;;;;;;;22.08;13.02;;;3.80;99.90;;;;;;5066327;28;20214;-90
2021/01/17 11:58:42;;;;;;;19.20;12.60;;;3.50;99.90;;;;;;5060317;28;20249;-88
2021/01/17 12:01:13;;;;;;;20.35;11.75;;;3.40;99.90;;;;;;5059377;28;20222;-89
2021/01/17 12:03:41;;;;;;;28.40;13.57;;;3.20;99.90;;;;;;5062311;28;20206;-87
2021/01/17 12:06:11;;;;;;;30.55;17.45;;;3.10;99.90;;;;;;5058724;28;20206;-85
2021/01/17 12:09:05;;;;;;;28.33;16.65;;;3.10;99.90;;;;;;5060745;28;20215;-88
2021/01/17 12:11:46;;;;;;;29.52;16.70;;;3.10;99.90;;;;;;5063734;28;20222;-81
2021/01/17 12:14:15;;;;;;;37.15;17.05;;;3.20;99.90;;;;;;5065704;28;20199;-81
2021/01/17 12:16:44;;;;;;;27.00;16.00;;;3.30;99.90;;;;;;5059857;28;20215;-84
2021/01/17 12:19:15;;;;;;;35.20;17.02;;;3.50;99.90;;;;;;5060042;28;20547;-89
2021/01/17 12:21:44;;;;;;;26.48;16.65;;;3.50;99.90;;;;;;5063825;28;20317;-88
2021/01/17 12:24:13;;;;;;;28.77;15.98;;;3.30;99.90;;;;;;5065379;28;20262;-86
2021/01/17 12:26:40;;;;;;;26.85;16.33;;;3.30;99.90;;;;;;5064895;28;20685;-88
2021/01/17 12:29:08;;;;;;;29.25;17.27;;;3.30;99.90;;;;;;5061736;28;20281;-86
2021/01/17 12:31:35;;;;;;;25.90;16.33;;;3.00;99.90;;;;;;5063753;28;20222;-86
2021/01/17 12:34:02;;;;;;;29.77;18.98;;;3.20;99.90;;;;;;5063337;28;20237;-87
2021/01/17 12:36:30;;;;;;;28.08;17.15;;;3.00;99.90;;;;;;5058830;28;20612;-86
2021/01/17 12:38:59;;;;;;;28.88;16.23;;;2.90;99.90;;;;;;5058056;28;20233;-84
2021/01/17 12:41:27;;;;;;;32.10;17.23;;;3.10;99.90;;;;;;5057102;28;20241;-86
2021/01/17 12:43:57;;;;;;;31.00;16.88;;;2.90;99.90;;;;;;5064914;28;20202;-87
2021/01/17 12:46:25;;;;;;;25.73;16.35;;;2.90;99.90;;;;;;5065887;28;20195;-85
2021/01/17 12:48:52;;;;;;;31.77;15.85;;;3.10;99.90;;;;;;5064690;28;20705;-86
2021/01/17 12:51:19;;;;;;;26.80;16.73;;;3.00;99.90;;;;;;5060554;28;20617;-87